Flight Track Log - Related Links

Times and Time Zones

All times are in EST time to prevent confusion due to time zone crossing. See the BLS384 flight status page for this flight to view local times or setup timezone preferences in your user account.

Time Position Orientation Groundspeed Altitude Reporting Facility
EST Latitude Longitude Course Direction KTS MPH feet Rate Location/Type
Tue 04:06:11 PM 48.3500 -89.2667 326° Northwest 10 12 600  Level Winnipeg Center
Tue 04:07:30 PM 48.3667 -89.2833 326° Northwest 100 115 700 1,165 Climbing Winnipeg Center
Tue 04:08:30 PM 48.3333 -89.3333 225° Southwest 160 184 3,300 2,350 Climbing Winnipeg Center
Tue 04:09:30 PM 48.3000 -89.3167 162° South 180 207 5,400 2,300 Climbing Winnipeg Center
Tue 04:10:30 PM 48.2667 -89.2500 127° Southeast 200 230 7,900 2,250 Climbing Winnipeg Center
Tue 04:11:30 PM 48.2333 -89.1833 127° Southeast 210 242 9,900 2,050 Climbing Winnipeg Center
Tue 04:12:30 PM 48.2167 -89.1000 107° East 220 253 12,000 1,700 Climbing Winnipeg Center
Tue 04:13:30 PM 48.1833 -89.0167 121° Southeast 230 265 13,300 1,350 Climbing Winnipeg Center
Tue 04:14:30 PM 48.1500 -88.9333 121° Southeast 240 276 14,700 1,350 Climbing Winnipeg Center
Tue 04:15:30 PM 48.1333 -88.8500 107° East 250 288 16,000 1,150 Climbing Winnipeg Center
Tue 04:16:30 PM 48.0833 -88.7500 127° Southeast 250 288 17,000 1,000 Climbing Winnipeg Center
Tue 04:17:30 PM 48.0667 -88.6500 104° East 260 299 18,000 950 Climbing Winnipeg Center
Tue 04:18:30 PM 48.0167 -88.5667 132° Southeast 260 299 18,900 500 Climbing Winnipeg Center
Tue 04:19:30 PM 47.9833 -88.4667 116° Southeast 270 311 19,000 50 Climbing Winnipeg Center
Tue 04:20:30 PM 47.9500 -88.3500 113° Southeast 290 334 19,000  Level Winnipeg Center
Tue 04:21:30 PM 47.9167 -88.2500 116° Southeast 300 345 19,000  Level Winnipeg Center
Tue 04:22:30 PM 47.8667 -88.1333 123° Southeast 310 357 19,000 -50 Level Winnipeg Center
Tue 04:23:30 PM 47.8333 -88.0167 113° Southeast 310 357 18,900  Descending Winnipeg Center
Tue 04:24:30 PM 47.7833 -87.9000 122° Southeast 310 357 19,000  Climbing Winnipeg Center
Tue 04:25:30 PM 47.7333 -87.7833 122° Southeast 310 357 18,900 -50 Descending Winnipeg Center
Tue 04:26:30 PM 47.7000 -87.7000 121° Southeast 310 357 18,900  Level Winnipeg Center
Tue 04:27:30 PM 47.6500 -87.5833 122° Southeast 310 357 18,900 50 Level Winnipeg Center
Tue 04:28:30 PM 47.6167 -87.4667 113° Southeast 310 357 19,000 200 Climbing Winnipeg Center
Tue 04:29:30 PM 47.5667 -87.3500 122° Southeast 310 357 19,300 600 Climbing Winnipeg Center
Tue 04:30:30 PM 47.5500 -87.2500 104° East 290 334 20,200 700 Climbing Winnipeg Center
Tue 04:31:30 PM 47.5000 -87.1333 122° Southeast 280 322 20,700 400 Climbing Winnipeg Center
Tue 04:32:30 PM 47.4667 -87.0333 116° Southeast 280 322 21,000 110 Climbing Winnipeg Center
Tue 04:34:14 PM 47.4167 -86.9000 119° Southeast 290 334 21,000  Level Toronto Center
Tue 04:35:14 PM 47.3833 -86.8000 116° Southeast 290 334 21,000  Level Toronto Center
Tue 04:36:14 PM 47.3333 -86.7000 126° Southeast 300 345 21,000 -50 Level Toronto Center
Tue 04:37:14 PM 47.3000 -86.5833 113° Southeast 300 345 20,900  Descending Toronto Center
Tue 04:38:14 PM 47.2500 -86.4833 126° Southeast 300 345 21,000  Climbing Toronto Center
Tue 04:39:14 PM 47.2167 -86.3667 113° Southeast 300 345 20,900 -50 Descending Toronto Center
Tue 04:40:14 PM 47.1833 -86.2833 120° Southeast 290 334 20,900  Level Toronto Center
Tue 04:41:14 PM 47.1333 -86.1833 126° Southeast 290 334 20,900 50 Level Toronto Center
Tue 04:42:14 PM 47.0833 -86.0500 119° Southeast 290 334 21,000 50 Climbing Toronto Center
Tue 04:43:14 PM 47.0667 -85.9667 106° East 290 334 21,000 -50 Level Toronto Center
Tue 04:44:14 PM 47.0167 -85.8667 126° Southeast 290 334 20,900 -100 Descending Toronto Center
Tue 04:45:14 PM 46.9667 -85.7500 122° Southeast 290 334 20,800  Descending Toronto Center
Tue 04:46:14 PM 46.9333 -85.6333 113° Southeast 290 334 20,900 -400 Climbing Toronto Center
Tue 04:47:14 PM 46.8833 -85.5667 138° Southeast 290 334 20,000 -1,250 Descending Toronto Center
Tue 04:48:14 PM 46.8333 -85.4333 119° Southeast 320 368 18,400 -1,550 Descending Toronto Center
Tue 04:49:14 PM 46.8000 -85.3333 116° Southeast 310 357 16,900 -1,600 Descending Toronto Center
Tue 04:50:14 PM 46.7500 -85.2500 131° Southeast 300 345 15,200 -1,800 Descending Toronto Center
Tue 04:51:14 PM 46.7000 -85.1333 122° Southeast 290 334 13,300 -1,950 Descending Toronto Center
Tue 04:52:14 PM 46.6500 -85.0500 131° Southeast 290 334 11,300 -2,400 Descending Toronto Center
Tue 04:53:14 PM 46.6167 -84.9500 116° Southeast 280 322 8,500 -2,900 Descending Toronto Center
Tue 04:54:14 PM 46.5667 -84.8667 131° Southeast 260 299 5,500 -2,750 Descending Toronto Center
Tue 04:55:14 PM 46.5333 -84.8000 126° Southeast 250 288 3,000 -1,500 Descending Toronto Center
Tue 04:56:14 PM 46.5167 -84.7167 106° East 190 219 2,500 -250 Descending Toronto Center
Tue 04:57:14 PM 46.5000 -84.6500 110° East 180 207 2,500 -450 Level Toronto Center
Tue 04:58:14 PM 46.5000 -84.6000 90° East 160 184 1,600 -850 Descending Toronto Center
Tue 04:59:14 PM 46.4833 -84.5167 106° East 150 173 800 -550 Descending Toronto Center
Tue 05:00:14 PM 46.4667 -84.5000 145° Southeast 120 138 500 -300 Descending Toronto Center

Login

Don't have an account? Register now (free) for customized features, flight alerts, and more!